CPX264 Details

Departure: Charlotte/Douglas International Airport (KCLT)
Arrival: Miami International Airport (KMIA)
Route: ICONS4 NOOKS WURFL Q83 JEVED Q97 KENLL OMN HILEY7


Current Weather Information
KCLT 260152Z 23006KT 10SM FEW060 SCT160 OVC190 22/14 A2988 RMK AO2 SLP110 T02170139
KMIA 260153Z 13006KT 10SM FEW035 FEW150 BKN250 25/21 A2999 RMK AO2 SLP156 T02500206